sensor_id;sensor_type;location;lat;lon;timestamp;pressure;altitude;pressure_sealevel;temperature;humidity
69245;BME280;56357;52.304;4.870;2023-04-25T00:00:37;101340.56;;;16.76;50.84
69245;BME280;56357;52.304;4.870;2023-04-25T00:03:03;101344.19;;;16.76;50.82
69245;BME280;56357;52.304;4.870;2023-04-25T00:05:31;101338.56;;;16.71;50.92
69245;BME280;56357;52.304;4.870;2023-04-25T00:07:57;101339.63;;;16.70;50.89
69245;BME280;56357;52.304;4.870;2023-04-25T00:10:24;101340.50;;;16.71;50.67
69245;BME280;56357;52.304;4.870;2023-04-25T00:12:51;101341.00;;;16.68;50.56
69245;BME280;56357;52.304;4.870;2023-04-25T00:15:17;101341.22;;;16.61;50.74
69245;BME280;56357;52.304;4.870;2023-04-25T00:17:44;101343.41;;;16.59;50.83
69245;BME280;56357;52.304;4.870;2023-04-25T00:20:11;101344.66;;;16.68;50.96
69245;BME280;56357;52.304;4.870;2023-04-25T00:22:37;101346.94;;;16.71;50.64
69245;BME280;56357;52.304;4.870;2023-04-25T00:25:05;101341.34;;;16.71;50.53
69245;BME280;56357;52.304;4.870;2023-04-25T00:27:32;101342.72;;;16.69;50.79
69245;BME280;56357;52.304;4.870;2023-04-25T00:29:58;101347.31;;;16.58;50.21
69245;BME280;56357;52.304;4.870;2023-04-25T00:32:25;101349.88;;;16.60;50.55
69245;BME280;56357;52.304;4.870;2023-04-25T00:34:51;101344.97;;;16.50;50.75
69245;BME280;56357;52.304;4.870;2023-04-25T00:37:17;101346.97;;;16.55;50.70
69245;BME280;56357;52.304;4.870;2023-04-25T00:39:44;101345.31;;;16.54;50.46
69245;BME280;56357;52.304;4.870;2023-04-25T00:42:11;101347.50;;;16.52;50.68
69245;BME280;56357;52.304;4.870;2023-04-25T00:44:38;101357.06;;;16.56;50.18
69245;BME280;56357;52.304;4.870;2023-04-25T00:47:04;101351.72;;;16.54;50.51
69245;BME280;56357;52.304;4.870;2023-04-25T00:49:31;101353.91;;;16.52;50.59
69245;BME280;56357;52.304;4.870;2023-04-25T00:51:57;101351.72;;;16.54;50.58
69245;BME280;56357;52.304;4.870;2023-04-25T00:54:24;101354.34;;;16.61;50.61
69245;BME280;56357;52.304;4.870;2023-04-25T00:56:51;101356.28;;;16.60;50.15
69245;BME280;56357;52.304;4.870;2023-04-25T00:59:19;101356.53;;;16.59;50.02
69245;BME280;56357;52.304;4.870;2023-04-25T01:01:45;101360.47;;;16.58;49.91
69245;BME280;56357;52.304;4.870;2023-04-25T01:04:12;101363.50;;;16.56;50.08
69245;BME280;56357;52.304;4.870;2023-04-25T01:06:40;101355.38;;;16.55;49.80
69245;BME280;56357;52.304;4.870;2023-04-25T01:09:06;101358.50;;;16.41;50.42
69245;BME280;56357;52.304;4.870;2023-04-25T01:11:33;101356.25;;;16.38;50.50
69245;BME280;56357;52.304;4.870;2023-04-25T01:14:00;101360.09;;;16.54;49.86
69245;BME280;56357;52.304;4.870;2023-04-25T01:16:27;101360.78;;;16.44;49.99
69245;BME280;56357;52.304;4.870;2023-04-25T01:18:54;101370.88;;;16.45;50.40
69245;BME280;56357;52.304;4.870;2023-04-25T01:21:20;101368.84;;;16.41;50.25
69245;BME280;56357;52.304;4.870;2023-04-25T01:23:47;101362.75;;;16.44;50.27
69245;BME280;56357;52.304;4.870;2023-04-25T01:26:13;101372.41;;;16.36;50.02
69245;BME280;56357;52.304;4.870;2023-04-25T01:28:40;101373.25;;;16.37;50.00
69245;BME280;56357;52.304;4.870;2023-04-25T01:31:06;101369.38;;;16.38;50.07
69245;BME280;56357;52.304;4.870;2023-04-25T01:33:33;101377.66;;;16.33;50.13
69245;BME280;56357;52.304;4.870;2023-04-25T01:36:00;101375.72;;;16.33;50.09
69245;BME280;56357;52.304;4.870;2023-04-25T01:38:26;101378.84;;;16.37;50.15
69245;BME280;56357;52.304;4.870;2023-04-25T01:40:53;101375.22;;;16.36;50.13
69245;BME280;56357;52.304;4.870;2023-04-25T01:43:20;101375.22;;;16.36;50.12
69245;BME280;56357;52.304;4.870;2023-04-25T01:45:46;101370.66;;;16.30;49.93
69245;BME280;56357;52.304;4.870;2023-04-25T01:48:14;101371.72;;;16.29;50.50
69245;BME280;56357;52.304;4.870;2023-04-25T01:50:40;101386.03;;;16.33;50.21
69245;BME280;56357;52.304;4.870;2023-04-25T01:53:09;101387.25;;;16.20;49.91
69245;BME280;56357;52.304;4.870;2023-04-25T01:55:35;101382.59;;;16.26;50.23
69245;BME280;56357;52.304;4.870;2023-04-25T01:58:02;101388.50;;;16.29;50.19
69245;BME280;56357;52.304;4.870;2023-04-25T02:00:29;101386.63;;;16.35;50.01
69245;BME280;56357;52.304;4.870;2023-04-25T02:02:58;101380.81;;;16.36;49.64
69245;BME280;56357;52.304;4.870;2023-04-25T02:05:24;101391.63;;;16.33;49.88
69245;BME280;56357;52.304;4.870;2023-04-25T02:07:51;101393.28;;;16.29;50.05
69245;BME280;56357;52.304;4.870;2023-04-25T02:10:17;101401.66;;;16.29;49.83
69245;BME280;56357;52.304;4.870;2023-04-25T02:12:43;101391.41;;;16.34;49.87
69245;BME280;56357;52.304;4.870;2023-04-25T02:15:10;101402.22;;;16.31;50.11
69245;BME280;56357;52.304;4.870;2023-04-25T02:17:36;101395.00;;;16.35;49.99
69245;BME280;56357;52.304;4.870;2023-04-25T02:20:04;101396.47;;;16.37;49.88
69245;BME280;56357;52.304;4.870;2023-04-25T02:22:31;101395.69;;;16.42;50.27
69245;BME280;56357;52.304;4.870;2023-04-25T02:24:59;101393.72;;;16.42;49.70
69245;BME280;56357;52.304;4.870;2023-04-25T02:27:25;101393.41;;;16.39;50.14
69245;BME280;56357;52.304;4.870;2023-04-25T02:29:51;101389.78;;;16.38;50.01
69245;BME280;56357;52.304;4.870;2023-04-25T02:32:18;101385.88;;;16.39;50.13
69245;BME280;56357;52.304;4.870;2023-04-25T02:34:44;101407.25;;;16.29;50.32
69245;BME280;56357;52.304;4.870;2023-04-25T02:37:12;101421.97;;;16.24;51.60
69245;BME280;56357;52.304;4.870;2023-04-25T02:39:38;101434.69;;;16.48;50.01
69245;BME280;56357;52.304;4.870;2023-04-25T02:42:05;101434.84;;;16.42;50.40
69245;BME280;56357;52.304;4.870;2023-04-25T02:44:31;101439.19;;;16.50;50.27
69245;BME280;56357;52.304;4.870;2023-04-25T02:46:57;101433.22;;;16.63;50.43
69245;BME280;56357;52.304;4.870;2023-04-25T02:49:24;101418.97;;;16.47;51.05
69245;BME280;56357;52.304;4.870;2023-04-25T02:51:50;101415.97;;;16.32;49.96
69245;BME280;56357;52.304;4.870;2023-04-25T02:54:17;101408.22;;;16.39;49.79
69245;BME280;56357;52.304;4.870;2023-04-25T02:56:43;101397.41;;;16.26;49.47
69245;BME280;56357;52.304;4.870;2023-04-25T02:59:09;101403.50;;;16.23;49.77
69245;BME280;56357;52.304;4.870;2023-04-25T03:01:36;101398.84;;;16.12;50.00
69245;BME280;56357;52.304;4.870;2023-04-25T03:04:02;101393.28;;;16.29;49.72
69245;BME280;56357;52.304;4.870;2023-04-25T03:06:29;101402.22;;;16.31;49.58
69245;BME280;56357;52.304;4.870;2023-04-25T03:08:56;101409.78;;;16.30;49.99
69245;BME280;56357;52.304;4.870;2023-04-25T03:11:25;101411.44;;;16.31;49.96
69245;BME280;56357;52.304;4.870;2023-04-25T03:13:52;101407.31;;;16.34;49.92
69245;BME280;56357;52.304;4.870;2023-04-25T03:16:18;101418.50;;;16.34;49.65
69245;BME280;56357;52.304;4.870;2023-04-25T03:18:45;101418.16;;;16.30;49.90
69245;BME280;56357;52.304;4.870;2023-04-25T03:21:11;101423.75;;;16.30;50.20
69245;BME280;56357;52.304;4.870;2023-04-25T03:23:38;101428.31;;;16.36;50.17
69245;BME280;56357;52.304;4.870;2023-04-25T03:26:04;101429.94;;;16.32;49.97
69245;BME280;56357;52.304;4.870;2023-04-25T03:28:31;101430.44;;;16.29;50.05
69245;BME280;56357;52.304;4.870;2023-04-25T03:30:57;101428.06;;;16.21;50.14
69245;BME280;56357;52.304;4.870;2023-04-25T03:33:24;101437.56;;;16.20;50.60
69245;BME280;56357;52.304;4.870;2023-04-25T03:35:50;101449.41;;;16.27;49.86
69245;BME280;56357;52.304;4.870;2023-04-25T03:38:18;101444.75;;;16.16;50.18
69245;BME280;56357;52.304;4.870;2023-04-25T03:40:44;101437.63;;;16.25;50.24
69245;BME280;56357;52.304;4.870;2023-04-25T03:43:11;101448.13;;;16.18;50.66
69245;BME280;56357;52.304;4.870;2023-04-25T03:45:37;101443.06;;;16.32;50.23
69245;BME280;56357;52.304;4.870;2023-04-25T03:48:03;101449.00;;;16.19;50.17
69245;BME280;56357;52.304;4.870;2023-04-25T03:50:30;101455.56;;;16.29;50.27
69245;BME280;56357;52.304;4.870;2023-04-25T03:52:56;101449.66;;;16.26;50.19
69245;BME280;56357;52.304;4.870;2023-04-25T03:55:23;101445.50;;;16.28;50.61
69245;BME280;56357;52.304;4.870;2023-04-25T03:57:50;101452.97;;;16.23;50.13
69245;BME280;56357;52.304;4.870;2023-04-25T04:00:16;101457.97;;;16.37;49.85
69245;BME280;56357;52.304;4.870;2023-04-25T04:02:43;101466.34;;;16.21;50.21
69245;BME280;56357;52.304;4.870;2023-04-25T04:05:09;101472.34;;;16.29;50.40
69245;BME280;56357;52.304;4.870;2023-04-25T04:07:35;101456.97;;;16.27;49.88
69245;BME280;56357;52.304;4.870;2023-04-25T04:10:06;101457.78;;;16.27;49.89
69245;BME280;56357;52.304;4.870;2023-04-25T04:12:33;101452.78;;;16.29;50.38
69245;BME280;56357;52.304;4.870;2023-04-25T04:14:59;101458.47;;;16.18;49.76
69245;BME280;56357;52.304;4.870;2023-04-25T04:17:26;101461.50;;;16.16;50.37
69245;BME280;56357;52.304;4.870;2023-04-25T04:19:52;101458.03;;;16.26;49.83
69245;BME280;56357;52.304;4.870;2023-04-25T04:22:18;101464.81;;;16.30;50.04
69245;BME280;56357;52.304;4.870;2023-04-25T04:24:45;101458.47;;;16.34;49.55
69245;BME280;56357;52.304;4.870;2023-04-25T04:27:12;101454.31;;;16.37;49.47
69245;BME280;56357;52.304;4.870;2023-04-25T04:29:38;101469.66;;;16.34;49.51
69245;BME280;56357;52.304;4.870;2023-04-25T04:32:05;101465.59;;;16.42;50.07
69245;BME280;56357;52.304;4.870;2023-04-25T04:34:33;101462.88;;;16.47;49.37
69245;BME280;56357;52.304;4.870;2023-04-25T04:37:00;101471.50;;;16.45;49.38
69245;BME280;56357;52.304;4.870;2023-04-25T04:39:27;101468.72;;;16.45;49.78
69245;BME280;56357;52.304;4.870;2023-04-25T04:41:54;101479.72;;;16.35;49.74
69245;BME280;56357;52.304;4.870;2023-04-25T04:44:20;101482.09;;;16.43;49.31
69245;BME280;56357;52.304;4.870;2023-04-25T04:46:46;101480.34;;;16.54;49.50
69245;BME280;56357;52.304;4.870;2023-04-25T04:49:13;101485.69;;;16.56;49.45
69245;BME280;56357;52.304;4.870;2023-04-25T04:51:40;101484.31;;;16.58;49.42
69245;BME280;56357;52.304;4.870;2023-04-25T04:54:09;101486.34;;;16.63;49.40
69245;BME280;56357;52.304;4.870;2023-04-25T04:56:35;101488.56;;;16.61;49.44
69245;BME280;56357;52.304;4.870;2023-04-25T04:59:02;101488.81;;;16.59;49.67
69245;BME280;56357;52.304;4.870;2023-04-25T05:01:28;101488.50;;;16.56;50.01
69245;BME280;56357;52.304;4.870;2023-04-25T05:03:56;101491.44;;;16.66;50.06
69245;BME280;56357;52.304;4.870;2023-04-25T05:06:25;101497.63;;;16.68;49.63
69245;BME280;56357;52.304;4.870;2023-04-25T05:08:52;101500.84;;;16.76;49.65
69245;BME280;56357;52.304;4.870;2023-04-25T05:11:19;101498.91;;;16.77;49.84
69245;BME280;56357;52.304;4.870;2023-04-25T05:13:46;101505.91;;;16.79;49.70
69245;BME280;56357;52.304;4.870;2023-04-25T05:16:12;101503.28;;;16.89;50.82
69245;BME280;56357;52.304;4.870;2023-04-25T05:18:39;101505.09;;;17.00;50.28
69245;BME280;56357;52.304;4.870;2023-04-25T05:21:06;101513.22;;;16.80;49.34
69245;BME280;56357;52.304;4.870;2023-04-25T05:23:32;101510.09;;;16.77;48.95
69245;BME280;56357;52.304;4.870;2023-04-25T05:25:59;101508.91;;;16.73;49.20
69245;BME280;56357;52.304;4.870;2023-04-25T05:28:26;101509.81;;;16.78;49.46
69245;BME280;56357;52.304;4.870;2023-04-25T05:30:52;101518.47;;;16.77;49.31
69245;BME280;56357;52.304;4.870;2023-04-25T05:33:19;101530.84;;;16.81;49.49
69245;BME280;56357;52.304;4.870;2023-04-25T05:35:45;101531.19;;;16.68;50.03
69245;BME280;56357;52.304;4.870;2023-04-25T05:38:12;101535.56;;;16.64;50.10
69245;BME280;56357;52.304;4.870;2023-04-25T05:40:38;101531.25;;;16.89;49.96
69245;BME280;56357;52.304;4.870;2023-04-25T05:43:05;101537.97;;;16.88;49.52
69245;BME280;56357;52.304;4.870;2023-04-25T05:45:31;101529.13;;;16.80;49.91
69245;BME280;56357;52.304;4.870;2023-04-25T05:47:57;101546.78;;;16.80;50.62
69245;BME280;56357;52.304;4.870;2023-04-25T05:50:24;101546.88;;;16.69;50.49
69245;BME280;56357;52.304;4.870;2023-04-25T05:52:50;101545.59;;;16.76;50.65
69245;BME280;56357;52.304;4.870;2023-04-25T05:55:17;101542.69;;;16.88;49.84
69245;BME280;56357;52.304;4.870;2023-04-25T05:57:45;101549.66;;;16.85;49.51
69245;BME280;56357;52.304;4.870;2023-04-25T06:00:13;101549.56;;;16.64;50.11
69245;BME280;56357;52.304;4.870;2023-04-25T06:02:40;101560.91;;;16.74;49.65
69245;BME280;56357;52.304;4.870;2023-04-25T06:05:08;101558.72;;;16.76;49.69
69245;BME280;56357;52.304;4.870;2023-04-25T06:07:34;101563.72;;;16.74;49.40
69245;BME280;56357;52.304;4.870;2023-04-25T06:10:01;101567.44;;;16.96;49.77
69245;BME280;56357;52.304;4.870;2023-04-25T06:12:28;101566.59;;;16.95;49.44
69245;BME280;56357;52.304;4.870;2023-04-25T06:14:55;101564.13;;;16.99;48.84
69245;BME280;56357;52.304;4.870;2023-04-25T06:17:21;101569.66;;;16.94;49.22
69245;BME280;56357;52.304;4.870;2023-04-25T06:19:48;101569.13;;;16.97;49.54
69245;BME280;56357;52.304;4.870;2023-04-25T06:22:14;101560.75;;;16.97;49.25
69245;BME280;56357;52.304;4.870;2023-04-25T06:24:40;101573.53;;;16.93;49.50
69245;BME280;56357;52.304;4.870;2023-04-25T06:27:07;101583.19;;;17.18;48.41
69245;BME280;56357;52.304;4.870;2023-04-25T06:29:33;101570.53;;;17.16;48.55
69245;BME280;56357;52.304;4.870;2023-04-25T06:31:59;101578.63;;;17.12;49.41
69245;BME280;56357;52.304;4.870;2023-04-25T06:34:26;101592.19;;;17.20;48.51
69245;BME280;56357;52.304;4.870;2023-04-25T06:36:52;101613.22;;;17.23;49.36
69245;BME280;56357;52.304;4.870;2023-04-25T06:39:19;101617.28;;;17.32;47.97
69245;BME280;56357;52.304;4.870;2023-04-25T06:41:48;101632.72;;;17.34;48.81
69245;BME280;56357;52.304;4.870;2023-04-25T06:44:14;101628.97;;;17.29;47.77
69245;BME280;56357;52.304;4.870;2023-04-25T06:46:41;101628.84;;;17.19;47.16
69245;BME280;56357;52.304;4.870;2023-04-25T06:49:07;101608.97;;;17.20;49.82
69245;BME280;56357;52.304;4.870;2023-04-25T06:51:34;101618.41;;;16.98;47.49
69245;BME280;56357;52.304;4.870;2023-04-25T06:54:00;101615.50;;;16.93;48.17
69245;BME280;56357;52.304;4.870;2023-04-25T06:56:28;101616.63;;;16.92;48.29
69245;BME280;56357;52.304;4.870;2023-04-25T06:58:56;101618.06;;;16.78;48.33
69245;BME280;56357;52.304;4.870;2023-04-25T07:01:22;101624.84;;;16.82;48.11
69245;BME280;56357;52.304;4.870;2023-04-25T07:03:48;101624.25;;;16.80;48.08
69245;BME280;56357;52.304;4.870;2023-04-25T07:06:15;101631.44;;;16.76;47.95
69245;BME280;56357;52.304;4.870;2023-04-25T07:08:41;101622.13;;;16.87;47.77
69245;BME280;56357;52.304;4.870;2023-04-25T07:11:07;101627.81;;;16.92;47.55
69245;BME280;56357;52.304;4.870;2023-04-25T07:13:34;101624.75;;;17.10;47.63
69245;BME280;56357;52.304;4.870;2023-04-25T07:16:00;101618.91;;;17.11;47.27
69245;BME280;56357;52.304;4.870;2023-04-25T07:18:27;101625.00;;;17.25;47.32
69245;BME280;56357;52.304;4.870;2023-04-25T07:20:53;101626.84;;;17.36;47.38
69245;BME280;56357;52.304;4.870;2023-04-25T07:23:20;101629.03;;;17.67;47.08
69245;BME280;56357;52.304;4.870;2023-04-25T07:25:46;101632.28;;;17.59;46.48
69245;BME280;56357;52.304;4.870;2023-04-25T07:28:13;101625.16;;;17.73;46.43
69245;BME280;56357;52.304;4.870;2023-04-25T07:30:39;101629.00;;;18.10;45.45
69245;BME280;56357;52.304;4.870;2023-04-25T07:33:05;101627.59;;;18.35;44.94
69245;BME280;56357;52.304;4.870;2023-04-25T07:35:32;101640.84;;;18.39;44.24
69245;BME280;56357;52.304;4.870;2023-04-25T07:37:58;101643.22;;;18.47;44.96
69245;BME280;56357;52.304;4.870;2023-04-25T07:40:25;101640.13;;;18.27;44.61
69245;BME280;56357;52.304;4.870;2023-04-25T07:42:51;101648.06;;;18.57;44.60
69245;BME280;56357;52.304;4.870;2023-04-25T07:45:18;101647.59;;;18.65;43.62
69245;BME280;56357;52.304;4.870;2023-04-25T07:47:44;101653.69;;;18.88;44.04
69245;BME280;56357;52.304;4.870;2023-04-25T07:50:11;101644.22;;;18.63;43.37
69245;BME280;56357;52.304;4.870;2023-04-25T07:52:37;101644.31;;;18.73;43.37
69245;BME280;56357;52.304;4.870;2023-04-25T07:55:04;101641.81;;;18.76;43.54
69245;BME280;56357;52.304;4.870;2023-04-25T07:57:30;101649.50;;;18.86;43.64
69245;BME280;56357;52.304;4.870;2023-04-25T07:59:57;101662.53;;;18.70;44.21
69245;BME280;56357;52.304;4.870;2023-04-25T08:02:23;101662.25;;;18.72;43.50
69245;BME280;56357;52.304;4.870;2023-04-25T08:04:51;101668.50;;;18.79;43.54
69245;BME280;56357;52.304;4.870;2023-04-25T08:07:17;101673.75;;;19.02;44.00
69245;BME280;56357;52.304;4.870;2023-04-25T08:09:43;101682.53;;;18.79;43.60
69245;BME280;56357;52.304;4.870;2023-04-25T08:12:10;101682.13;;;18.92;43.48
69245;BME280;56357;52.304;4.870;2023-04-25T08:14:36;101676.69;;;18.85;43.47
69245;BME280;56357;52.304;4.870;2023-04-25T08:17:05;101686.38;;;18.99;43.64
69245;BME280;56357;52.304;4.870;2023-04-25T08:19:31;101682.81;;;19.09;43.04
69245;BME280;56357;52.304;4.870;2023-04-25T08:21:57;101692.41;;;19.13;43.12
69245;BME280;56357;52.304;4.870;2023-04-25T08:24:24;101695.34;;;19.28;42.75
69245;BME280;56357;52.304;4.870;2023-04-25T08:26:51;101702.19;;;19.37;42.02
69245;BME280;56357;52.304;4.870;2023-04-25T08:29:17;101702.53;;;19.46;42.18
69245;BME280;56357;52.304;4.870;2023-04-25T08:31:44;101713.16;;;19.12;41.76
69245;BME280;56357;52.304;4.870;2023-04-25T08:34:10;101720.69;;;19.06;42.42
69245;BME280;56357;52.304;4.870;2023-04-25T08:36:37;101720.81;;;18.90;42.30
69245;BME280;56357;52.304;4.870;2023-04-25T08:39:03;101717.59;;;19.03;42.29
69245;BME280;56357;52.304;4.870;2023-04-25T08:41:30;101713.22;;;19.17;42.59
69245;BME280;56357;52.304;4.870;2023-04-25T08:43:57;101715.66;;;19.08;42.26
69245;BME280;56357;52.304;4.870;2023-04-25T08:46:25;101729.50;;;19.15;42.20
69245;BME280;56357;52.304;4.870;2023-04-25T08:48:53;101729.13;;;19.06;42.47
69245;BME280;56357;52.304;4.870;2023-04-25T08:51:23;101743.88;;;19.24;43.17
69245;BME280;56357;52.304;4.870;2023-04-25T08:53:52;101744.75;;;18.97;43.22
69245;BME280;56357;52.304;4.870;2023-04-25T08:56:18;101755.56;;;18.84;42.90
69245;BME280;56357;52.304;4.870;2023-04-25T08:58:50;101754.66;;;18.78;43.06
69245;BME280;56357;52.304;4.870;2023-04-25T09:01:17;101757.78;;;18.82;42.98
69245;BME280;56357;52.304;4.870;2023-04-25T09:03:45;101765.31;;;19.03;43.12
69245;BME280;56357;52.304;4.870;2023-04-25T09:06:12;101773.78;;;19.08;42.65
69245;BME280;56357;52.304;4.870;2023-04-25T09:08:41;101762.66;;;18.91;42.27
69245;BME280;56357;52.304;4.870;2023-04-25T09:11:07;101777.88;;;18.74;42.43
69245;BME280;56357;52.304;4.870;2023-04-25T09:13:34;101780.34;;;18.92;42.75
69245;BME280;56357;52.304;4.870;2023-04-25T09:16:01;101783.00;;;18.77;43.44
69245;BME280;56357;52.304;4.870;2023-04-25T09:18:32;101787.81;;;18.60;43.01
69245;BME280;56357;52.304;4.870;2023-04-25T09:21:06;101790.25;;;18.73;41.62
69245;BME280;56357;52.304;4.870;2023-04-25T09:23:40;101793.69;;;18.58;41.80
69245;BME280;56357;52.304;4.870;2023-04-25T09:26:07;101783.00;;;18.55;41.97
69245;BME280;56357;52.304;4.870;2023-04-25T09:28:34;101792.50;;;18.76;41.79
69245;BME280;56357;52.304;4.870;2023-04-25T09:31:00;101789.28;;;18.89;41.37
69245;BME280;56357;52.304;4.870;2023-04-25T09:33:29;101789.13;;;19.00;42.93
69245;BME280;56357;52.304;4.870;2023-04-25T09:36:07;101797.19;;;19.18;40.20
69245;BME280;56357;52.304;4.870;2023-04-25T09:38:45;101792.16;;;18.94;40.88
69245;BME280;56357;52.304;4.870;2023-04-25T09:41:12;101785.31;;;18.85;41.64
69245;BME280;56357;52.304;4.870;2023-04-25T09:43:39;101795.81;;;18.94;41.92
69245;BME280;56357;52.304;4.870;2023-04-25T09:46:09;101798.44;;;19.06;41.73
69245;BME280;56357;52.304;4.870;2023-04-25T09:48:37;101796.81;;;19.10;41.80
69245;BME280;56357;52.304;4.870;2023-04-25T09:51:11;101799.91;;;19.08;40.56
69245;BME280;56357;52.304;4.870;2023-04-25T09:53:40;101804.97;;;19.11;40.47
69245;BME280;56357;52.304;4.870;2023-04-25T09:56:09;101795.72;;;19.11;40.22
69245;BME280;56357;52.304;4.870;2023-04-25T09:58:38;101814.91;;;19.19;41.18
69245;BME280;56357;52.304;4.870;2023-04-25T10:01:06;101801.75;;;19.25;41.19
69245;BME280;56357;52.304;4.870;2023-04-25T10:03:36;101810.59;;;19.11;41.25
69245;BME280;56357;52.304;4.870;2023-04-25T10:06:07;101812.44;;;19.28;40.74
69245;BME280;56357;52.304;4.870;2023-04-25T10:08:36;101824.44;;;19.18;40.26
69245;BME280;56357;52.304;4.870;2023-04-25T10:11:05;101824.41;;;19.40;40.83
69245;BME280;56357;52.304;4.870;2023-04-25T10:13:32;101831.50;;;19.21;41.07
69245;BME280;56357;52.304;4.870;2023-04-25T10:16:01;101839.47;;;19.07;41.35
69245;BME280;56357;52.304;4.870;2023-04-25T10:18:29;101842.44;;;18.95;42.47
69245;BME280;56357;52.304;4.870;2023-04-25T10:20:58;101835.28;;;18.61;40.53
69245;BME280;56357;52.304;4.870;2023-04-25T10:23:26;101844.59;;;18.67;42.23
69245;BME280;56357;52.304;4.870;2023-04-25T10:25:53;101832.91;;;18.75;41.08
69245;BME280;56357;52.304;4.870;2023-04-25T10:28:20;101836.94;;;18.62;40.96
69245;BME280;56357;52.304;4.870;2023-04-25T10:31:01;101839.75;;;18.84;41.26
69245;BME280;56357;52.304;4.870;2023-04-25T10:33:39;101839.88;;;18.94;40.13
69245;BME280;56357;52.304;4.870;2023-04-25T10:38:37;101846.00;;;18.91;41.13
69245;BME280;56357;52.304;4.870;2023-04-25T10:41:06;101846.88;;;18.91;41.74
69245;BME280;56357;52.304;4.870;2023-04-25T10:43:43;101844.84;;;18.87;41.46
69245;BME280;56357;52.304;4.870;2023-04-25T10:46:24;101847.91;;;18.85;41.33
69245;BME280;56357;52.304;4.870;2023-04-25T10:48:59;101855.16;;;19.03;41.12
69245;BME280;56357;52.304;4.870;2023-04-25T10:51:28;101847.44;;;19.15;41.83
69245;BME280;56357;52.304;4.870;2023-04-25T10:56:28;101855.66;;;19.00;41.42
69245;BME280;56357;52.304;4.870;2023-04-25T10:59:18;101853.69;;;19.22;41.31
69245;BME280;56357;52.304;4.870;2023-04-25T11:01:48;101866.88;;;19.22;40.73
69245;BME280;56357;52.304;4.870;2023-04-25T11:04:33;101881.06;;;19.10;41.70
69245;BME280;56357;52.304;4.870;2023-04-25T11:07:19;101873.63;;;18.99;42.27
69245;BME280;56357;52.304;4.870;2023-04-25T11:09:49;101874.56;;;18.61;42.59
69245;BME280;56357;52.304;4.870;2023-04-25T11:12:16;101868.78;;;18.51;42.69
69245;BME280;56357;52.304;4.870;2023-04-25T11:14:43;101866.06;;;18.40;43.51
69245;BME280;56357;52.304;4.870;2023-04-25T11:17:09;101874.47;;;18.40;43.39
69245;BME280;56357;52.304;4.870;2023-04-25T11:19:36;101874.53;;;18.83;42.77
69245;BME280;56357;52.304;4.870;2023-04-25T11:22:03;101878.44;;;18.60;42.67
69245;BME280;56357;52.304;4.870;2023-04-25T11:24:33;101879.09;;;18.46;43.60
69245;BME280;56357;52.304;4.870;2023-04-25T11:27:00;101880.84;;;18.35;43.07
69245;BME280;56357;52.304;4.870;2023-04-25T11:29:29;101879.47;;;18.54;43.42
69245;BME280;56357;52.304;4.870;2023-04-25T11:31:56;101879.81;;;18.58;42.63
69245;BME280;56357;52.304;4.870;2023-04-25T11:34:24;101879.44;;;18.71;42.42
69245;BME280;56357;52.304;4.870;2023-04-25T11:36:52;101880.03;;;18.73;42.63
69245;BME280;56357;52.304;4.870;2023-04-25T11:39:19;101881.72;;;18.95;42.66
69245;BME280;56357;52.304;4.870;2023-04-25T11:41:46;101871.00;;;18.92;41.82
69245;BME280;56357;52.304;4.870;2023-04-25T11:44:17;101861.69;;;18.87;42.05
69245;BME280;56357;52.304;4.870;2023-04-25T11:46:44;101866.91;;;18.57;41.92
69245;BME280;56357;52.304;4.870;2023-04-25T11:49:11;101863.19;;;18.51;41.79
69245;BME280;56357;52.304;4.870;2023-04-25T11:51:42;101880.28;;;18.71;41.09
69245;BME280;56357;52.304;4.870;2023-04-25T11:54:09;101881.66;;;18.69;42.07
69245;BME280;56357;52.304;4.870;2023-04-25T11:56:36;101876.50;;;18.82;40.80
69245;BME280;56357;52.304;4.870;2023-04-25T11:59:04;101885.88;;;18.71;41.32
69245;BME280;56357;52.304;4.870;2023-04-25T12:01:33;101887.72;;;18.61;41.53
69245;BME280;56357;52.304;4.870;2023-04-25T12:04:16;101886.59;;;18.62;41.90
69245;BME280;56357;52.304;4.870;2023-04-25T12:06:45;101900.56;;;18.57;42.28
69245;BME280;56357;52.304;4.870;2023-04-25T12:09:13;101891.03;;;18.58;41.55
69245;BME280;56357;52.304;4.870;2023-04-25T12:11:56;101902.59;;;18.61;41.70
69245;BME280;56357;52.304;4.870;2023-04-25T12:16:54;101908.44;;;18.60;40.87
69245;BME280;56357;52.304;4.870;2023-04-25T12:19:21;101902.50;;;18.56;40.41
69245;BME280;56357;52.304;4.870;2023-04-25T12:21:49;101899.25;;;18.64;41.57
69245;BME280;56357;52.304;4.870;2023-04-25T12:24:23;101918.03;;;18.64;40.20
69245;BME280;56357;52.304;4.870;2023-04-25T12:26:58;101911.53;;;18.42;39.86
69245;BME280;56357;52.304;4.870;2023-04-25T12:29:27;101912.31;;;18.54;40.35
69245;BME280;56357;52.304;4.870;2023-04-25T12:31:55;101907.84;;;18.74;39.33
69245;BME280;56357;52.304;4.870;2023-04-25T12:34:23;101914.66;;;18.62;41.11
69245;BME280;56357;52.304;4.870;2023-04-25T12:36:50;101912.91;;;18.77;40.44
69245;BME280;56357;52.304;4.870;2023-04-25T12:39:18;101921.47;;;18.87;40.01
69245;BME280;56357;52.304;4.870;2023-04-25T12:41:46;101918.59;;;18.61;39.82
69245;BME280;56357;52.304;4.870;2023-04-25T12:44:12;101918.63;;;18.66;40.17
69245;BME280;56357;52.304;4.870;2023-04-25T12:46:40;101915.25;;;18.64;40.28
69245;BME280;56357;52.304;4.870;2023-04-25T12:49:07;101920.25;;;18.62;41.33
69245;BME280;56357;52.304;4.870;2023-04-25T12:51:35;101922.31;;;18.66;39.89
69245;BME280;56357;52.304;4.870;2023-04-25T12:54:03;101924.78;;;18.63;40.03
69245;BME280;56357;52.304;4.870;2023-04-25T12:56:30;101923.59;;;18.59;39.99
69245;BME280;56357;52.304;4.870;2023-04-25T12:58:57;101925.06;;;18.45;40.51